createdAt,value
2018-08-12T00:00:21.576Z,86.24
2018-08-12T00:02:50.575Z,86.45
2018-08-12T00:05:19.577Z,87.94
2018-08-12T00:07:48.475Z,87.96
2018-08-12T00:10:17.573Z,87.94
2018-08-12T00:12:46.631Z,87.23
2018-08-12T00:15:18.086Z,87.58
2018-08-12T00:17:47.031Z,86.54
2018-08-12T00:20:18.774Z,88.06
2018-08-12T00:22:48.167Z,88.87
2018-08-12T00:25:18.742Z,87.46
2018-08-12T00:27:47.754Z,88.80
2018-08-12T00:30:17.904Z,88.36
2018-08-12T00:32:46.875Z,88.09
2018-08-12T00:35:16.884Z,87.97
2018-08-12T00:37:45.863Z,88.68
2018-08-12T00:40:16.283Z,89.04
2018-08-12T00:42:46.284Z,88.99
2018-08-12T00:45:17.252Z,90.42
2018-08-12T00:47:46.595Z,90.24
2018-08-12T00:50:16.372Z,90.61
2018-08-12T00:52:45.426Z,90.85
2018-08-12T00:55:16.632Z,91.01
2018-08-12T00:57:46.373Z,91.16
2018-08-12T01:00:21.889Z,90.56
2018-08-12T01:02:50.862Z,90.27
2018-08-12T01:05:20.220Z,89.94
2018-08-12T01:07:49.918Z,89.34
2018-08-12T01:10:19.492Z,89.58
2018-08-12T01:12:48.480Z,89.59
2018-08-12T01:15:20.057Z,90.17
2018-08-12T01:17:49.151Z,90.48
2018-08-12T01:20:24.337Z,91.08
2018-08-12T01:22:53.348Z,90.79
2018-08-12T01:25:22.673Z,90.36
2018-08-12T01:27:51.675Z,89.62
2018-08-12T01:30:21.588Z,89.59
2018-08-12T01:32:50.506Z,90.43
2018-08-12T01:35:19.566Z,90.13
2018-08-12T01:37:49.392Z,89.70
2018-08-12T01:40:19.079Z,89.89
2018-08-12T01:42:47.869Z,89.65
2018-08-12T01:45:19.383Z,89.20
2018-08-12T01:47:48.433Z,90.26
2018-08-12T01:50:18.813Z,90.25
2018-08-12T01:52:47.790Z,90.85
2018-08-12T01:55:17.010Z,90.96
2018-08-12T01:57:45.930Z,90.48
2018-08-12T02:00:17.883Z,89.77
2018-08-12T02:02:47.002Z,89.97
2018-08-12T02:05:16.628Z,90.42
2018-08-12T02:07:45.528Z,90.68
2018-08-12T02:10:14.496Z,91.27
2018-08-12T02:12:43.443Z,91.31
2018-08-12T02:15:12.591Z,91.35
2018-08-12T02:17:42.053Z,90.70
2018-08-12T02:20:11.716Z,90.35
2018-08-12T02:22:41.254Z,90.02
2018-08-12T02:25:10.936Z,90.07
2018-08-12T02:27:39.910Z,89.18
2018-08-12T02:30:11.167Z,90.02
2018-08-12T02:32:40.823Z,90.61
2018-08-12T02:35:09.971Z,90.36
2018-08-12T02:37:39.316Z,88.38
2018-08-12T02:40:09.195Z,88.40
2018-08-12T02:42:38.179Z,88.56
2018-08-12T02:45:10.958Z,88.77
2018-08-12T02:47:39.788Z,89.13
2018-08-12T02:50:08.647Z,88.59
2018-08-12T02:52:38.010Z,89.65
2018-08-12T02:55:09.039Z,89.95
2018-08-12T02:57:37.904Z,90.09
2018-08-12T03:00:08.029Z,88.99
2018-08-12T03:02:36.920Z,89.64
2018-08-12T03:05:05.892Z,90.74
2018-08-12T03:07:35.166Z,91.38
2018-08-12T03:10:04.400Z,90.99
2018-08-12T03:12:33.256Z,90.74
2018-08-12T03:15:02.383Z,90.93
2018-08-12T03:17:31.302Z,90.53
2018-08-12T03:20:00.297Z,90.41
2018-08-12T03:22:29.520Z,89.64
2018-08-12T03:24:58.699Z,89.33
2018-08-12T03:27:27.529Z,89.67
2018-08-12T03:29:56.435Z,89.32
2018-08-12T03:32:25.285Z,90.61
2018-08-12T03:34:54.147Z,90.66
2018-08-12T03:37:23.072Z,91.10
2018-08-12T03:39:51.962Z,89.82
2018-08-12T03:42:20.819Z,89.88
2018-08-12T03:44:55.797Z,91.55
2018-08-12T03:47:24.627Z,91.37
2018-08-12T03:49:53.476Z,91.23
2018-08-12T03:52:22.360Z,91.38
2018-08-12T03:54:51.254Z,91.35
2018-08-12T03:57:20.064Z,91.30
2018-08-12T03:59:49.204Z,91.41
2018-08-12T04:02:18.057Z,91.68
2018-08-12T04:04:46.899Z,91.21
2018-08-12T04:07:15.737Z,91.45
2018-08-12T04:09:44.719Z,91.30
2018-08-12T04:12:13.515Z,91.43
2018-08-12T04:14:42.360Z,91.38
2018-08-12T04:17:11.299Z,91.27
2018-08-12T04:19:40.542Z,91.19
2018-08-12T04:22:09.411Z,91.46
2018-08-12T04:24:38.200Z,91.93
2018-08-12T04:27:07.108Z,91.14
2018-08-12T04:29:36.276Z,90.61
2018-08-12T04:32:05.247Z,89.84
2018-08-12T04:34:34.045Z,90.33
2018-08-12T04:37:03.056Z,90.50
2018-08-12T04:39:31.911Z,90.94
2018-08-12T04:42:00.849Z,90.40
2018-08-12T04:44:29.725Z,89.53
2018-08-12T04:46:58.698Z,89.89
2018-08-12T04:49:27.492Z,90.34
2018-08-12T04:51:56.334Z,90.41
2018-08-12T04:54:25.160Z,90.12
2018-08-12T04:56:54.104Z,88.79
2018-08-12T04:59:22.894Z,87.17
2018-08-12T05:01:51.743Z,86.42
2018-08-12T05:04:20.625Z,86.06
2018-08-12T05:06:49.500Z,85.46
2018-08-12T05:09:18.343Z,88.05
2018-08-12T05:11:47.156Z,87.75
2018-08-12T05:14:16.077Z,86.59
2018-08-12T05:16:44.984Z,84.28
2018-08-12T05:19:13.843Z,84.30
2018-08-12T05:21:42.774Z,84.69
2018-08-12T05:24:11.645Z,83.40
2018-08-12T05:26:40.470Z,83.84
2018-08-12T05:29:09.319Z,83.41
2018-08-12T05:31:38.230Z,82.52
2018-08-12T05:34:07.207Z,82.24
2018-08-12T05:36:36.046Z,81.55
2018-08-12T05:39:10.275Z,80.53
2018-08-12T05:41:39.171Z,79.82
2018-08-12T05:44:08.564Z,78.93
2018-08-12T05:46:37.395Z,80.91
2018-08-12T05:49:06.348Z,83.92
2018-08-12T05:51:35.307Z,82.30
2018-08-12T05:54:04.244Z,84.23
2018-08-12T05:56:33.208Z,86.64
2018-08-12T05:59:02.172Z,85.96
2018-08-12T06:01:30.985Z,84.80
2018-08-12T06:03:59.847Z,87.03
2018-08-12T06:06:28.672Z,84.04
2018-08-12T06:08:57.654Z,83.55
2018-08-12T06:11:26.512Z,84.05
2018-08-12T06:13:55.347Z,86.08
2018-08-12T06:16:24.359Z,85.13
2018-08-12T06:18:53.410Z,80.25
2018-08-12T06:21:22.389Z,80.52
2018-08-12T06:23:51.256Z,77.96
2018-08-12T06:26:20.159Z,79.18
2018-08-12T06:28:49.023Z,81.99
2018-08-12T06:31:17.965Z,82.29
2018-08-12T06:33:46.841Z,76.79
2018-08-12T06:36:15.752Z,80.16
2018-08-12T06:38:44.697Z,80.07
2018-08-12T06:41:13.647Z,80.18
2018-08-12T06:43:42.558Z,77.85
2018-08-12T06:46:11.549Z,73.37
2018-08-12T06:48:40.401Z,73.02
2018-08-12T06:51:09.404Z,71.74
2018-08-12T06:53:38.259Z,71.82
2018-08-12T06:56:07.187Z,69.45
2018-08-12T06:58:36.129Z,66.33
2018-08-12T07:01:05.334Z,66.38
2018-08-12T07:03:34.180Z,63.17
2018-08-12T07:06:03.074Z,62.28
2018-08-12T07:08:31.973Z,62.83
2018-08-12T07:11:00.834Z,60.97
2018-08-12T07:13:30.083Z,60.93
2018-08-12T07:15:58.948Z,64.25
2018-08-12T07:18:27.902Z,63.11
2018-08-12T07:20:56.824Z,60.38
2018-08-12T07:23:25.883Z,60.22
2018-08-12T07:25:54.887Z,58.58
2018-08-12T07:28:23.867Z,57.75
2018-08-12T07:30:52.864Z,59.00
2018-08-12T07:33:21.732Z,56.32
2018-08-12T07:35:50.629Z,55.42
2018-08-12T07:38:19.551Z,54.25
2018-08-12T07:40:48.753Z,54.02
2018-08-12T07:43:18.034Z,54.56
2018-08-12T07:45:47.210Z,51.66
2018-08-12T07:48:16.272Z,51.13
2018-08-12T07:50:45.065Z,50.72
2018-08-12T07:53:13.905Z,49.32
2018-08-12T07:55:43.303Z,47.17
2018-08-12T07:58:12.437Z,47.25
2018-08-12T08:00:41.315Z,46.60
2018-08-12T08:03:10.183Z,48.00
2018-08-12T08:05:38.990Z,47.05
2018-08-12T08:08:07.980Z,46.76
2018-08-12T08:10:36.772Z,45.46
2018-08-12T08:13:05.760Z,44.28
2018-08-12T08:15:34.687Z,45.58
2018-08-12T08:18:04.579Z,45.03
2018-08-12T08:20:33.608Z,45.54
2018-08-12T08:23:02.605Z,45.96
2018-08-12T08:25:31.775Z,44.79
2018-08-12T08:28:00.707Z,45.65
2018-08-12T08:30:29.587Z,45.38
2018-08-12T08:32:58.415Z,45.61
2018-08-12T08:35:27.310Z,44.37
2018-08-12T08:37:56.264Z,43.48
2018-08-12T08:40:25.491Z,42.13
2018-08-12T08:42:54.431Z,43.75
2018-08-12T08:45:29.437Z,40.98
2018-08-12T08:47:58.659Z,41.49
2018-08-12T08:50:27.544Z,39.27
2018-08-12T08:52:56.371Z,39.69
2018-08-12T08:55:25.319Z,40.52
2018-08-12T08:57:54.189Z,41.99
2018-08-12T09:00:23.253Z,41.58
2018-08-12T09:02:53.092Z,42.01
2018-08-12T09:05:22.488Z,42.72
2018-08-12T09:07:51.764Z,42.79
2018-08-12T09:10:21.000Z,43.25
2018-08-12T09:12:50.063Z,45.00
2018-08-12T09:15:19.920Z,44.11
2018-08-12T09:17:49.261Z,43.68
2018-08-12T09:20:19.645Z,44.88
2018-08-12T09:22:48.520Z,44.87
2018-08-12T09:25:17.738Z,44.64
2018-08-12T09:27:46.650Z,44.88
2018-08-12T09:30:19.808Z,43.57
2018-08-12T09:32:48.985Z,43.85
2018-08-12T09:35:18.006Z,43.32
2018-08-12T09:37:47.251Z,44.35
2018-08-12T09:40:17.428Z,44.63
2018-08-12T09:42:47.212Z,43.50
2018-08-12T09:45:22.040Z,42.78
2018-08-12T09:47:51.087Z,43.60
2018-08-12T09:50:20.694Z,42.81
2018-08-12T09:52:50.854Z,43.38
2018-08-12T09:55:19.903Z,44.13
2018-08-12T09:57:48.735Z,42.99
2018-08-12T10:00:24.022Z,42.11
2018-08-12T10:02:54.596Z,43.02
2018-08-12T10:05:24.212Z,42.48
2018-08-12T10:07:53.184Z,41.81
2018-08-12T10:10:22.119Z,41.81
2018-08-12T10:12:51.040Z,42.50
2018-08-12T10:15:19.987Z,43.09
2018-08-12T10:17:51.014Z,43.32
2018-08-12T10:20:19.956Z,43.56
2018-08-12T10:22:48.943Z,43.43
2018-08-12T10:25:18.116Z,44.02
2018-08-12T10:27:46.990Z,44.01
2018-08-12T10:30:16.095Z,42.73
2018-08-12T10:32:45.168Z,43.36
2018-08-12T10:35:15.947Z,42.75
2018-08-12T10:37:45.700Z,42.60
2018-08-12T10:40:16.743Z,43.25
2018-08-12T10:42:46.591Z,42.53
2018-08-12T10:45:21.510Z,42.35
2018-08-12T10:47:50.415Z,42.62
2018-08-12T10:50:20.056Z,42.28
2018-08-12T10:52:49.608Z,43.15
2018-08-12T10:55:20.575Z,42.58
2018-08-12T10:57:49.585Z,42.43
2018-08-12T11:00:28.200Z,42.58
2018-08-12T11:02:57.172Z,42.26
2018-08-12T11:05:26.277Z,41.35
2018-08-12T11:07:57.701Z,41.57
2018-08-12T11:10:27.301Z,42.24
2018-08-12T11:12:56.240Z,41.28
2018-08-12T11:15:25.219Z,40.69
2018-08-12T11:17:54.310Z,41.39
2018-08-12T11:20:23.260Z,41.39
2018-08-12T11:22:52.185Z,42.15
2018-08-12T11:25:21.088Z,42.57
2018-08-12T11:27:49.912Z,40.55
2018-08-12T11:30:18.910Z,41.29
2018-08-12T11:32:47.972Z,41.09
2018-08-12T11:35:17.370Z,41.85
2018-08-12T11:37:46.420Z,40.76
2018-08-12T11:40:15.963Z,40.30
2018-08-12T11:42:45.080Z,40.66
2018-08-12T11:45:17.347Z,39.48
2018-08-12T11:47:47.312Z,39.92
2018-08-12T11:50:17.334Z,39.78
2018-08-12T11:52:46.656Z,39.34
2018-08-12T11:55:18.052Z,39.45
2018-08-12T11:57:47.005Z,40.06
2018-08-12T12:00:18.471Z,39.79
2018-08-12T12:02:49.084Z,40.71
2018-08-12T12:05:18.052Z,40.68
2018-08-12T12:07:47.108Z,39.37
2018-08-12T12:10:18.609Z,41.11
2018-08-12T12:12:48.871Z,40.97
2018-08-12T12:15:18.662Z,39.75
2018-08-12T12:17:48.544Z,40.53
2018-08-12T12:20:18.101Z,41.90
2018-08-12T12:22:47.882Z,40.67
2018-08-12T12:25:18.161Z,41.60
2018-08-12T12:27:47.232Z,40.68
2018-08-12T12:30:20.076Z,40.02
2018-08-12T12:32:50.288Z,39.78
2018-08-12T12:35:20.160Z,40.42
2018-08-12T12:37:50.458Z,41.63
2018-08-12T12:40:20.461Z,40.89
2018-08-12T12:42:50.618Z,42.46
2018-08-12T12:45:21.146Z,41.23
2018-08-12T12:47:51.306Z,40.87
2018-08-12T12:50:23.373Z,40.26
2018-08-12T12:52:53.682Z,41.32
2018-08-12T12:55:24.294Z,41.32
2018-08-12T12:57:53.805Z,40.44
2018-08-12T13:00:22.719Z,40.25
2018-08-12T13:02:52.175Z,40.23
2018-08-12T13:05:21.863Z,40.08
2018-08-12T13:07:51.237Z,39.00
2018-08-12T13:10:20.429Z,39.04
2018-08-12T13:12:49.374Z,39.86
2018-08-12T13:15:18.549Z,40.56
2018-08-12T13:17:47.494Z,40.71
2018-08-12T13:20:19.004Z,40.53
2018-08-12T13:22:48.786Z,41.64
2018-08-12T13:25:19.611Z,41.69
2018-08-12T13:27:48.577Z,41.70
2018-08-12T13:30:18.562Z,41.62
2018-08-12T13:32:48.229Z,42.83
2018-08-12T13:35:17.524Z,41.69
2018-08-12T13:37:46.565Z,40.89
2018-08-12T13:40:16.795Z,41.29
2018-08-12T13:42:46.360Z,42.74
2018-08-12T13:45:21.288Z,41.15
2018-08-12T13:47:50.200Z,40.83
2018-08-12T13:50:22.578Z,40.24
2018-08-12T13:52:52.067Z,40.22
2018-08-12T13:55:21.827Z,39.02
2018-08-12T13:57:51.490Z,40.83
2018-08-12T14:00:24.826Z,40.53
2018-08-12T14:02:53.799Z,39.80
2018-08-12T14:05:23.069Z,39.97
2018-08-12T14:07:52.335Z,41.66
2018-08-12T14:10:21.337Z,41.12
2018-08-12T14:12:50.303Z,41.17
2018-08-12T14:15:19.682Z,42.40
2018-08-12T14:17:50.057Z,41.65
2018-08-12T14:20:20.115Z,40.86
2018-08-12T14:22:49.142Z,38.98
2018-08-12T14:25:18.013Z,40.21
2018-08-12T14:27:47.025Z,39.31
2018-08-12T14:30:17.587Z,40.78
2018-08-12T14:32:47.420Z,41.78
2018-08-12T14:35:16.771Z,41.19
2018-08-12T14:37:46.275Z,41.00
2018-08-12T14:40:15.732Z,41.17
2018-08-12T14:42:44.683Z,41.88
2018-08-12T14:45:19.689Z,40.90
2018-08-12T14:47:48.704Z,40.49
2018-08-12T14:50:19.523Z,41.03
2018-08-12T14:52:49.212Z,39.96
2018-08-12T14:55:20.378Z,39.57
2018-08-12T14:57:49.373Z,40.04
2018-08-12T15:00:20.103Z,41.01
2018-08-12T15:02:51.200Z,39.93
2018-08-12T15:05:20.198Z,39.90
2018-08-12T15:07:49.267Z,41.06
2018-08-12T15:10:18.190Z,40.46
2018-08-12T15:12:47.022Z,39.92
2018-08-12T15:15:16.521Z,41.16
2018-08-12T15:17:45.984Z,40.81
2018-08-12T15:20:15.739Z,41.10
2018-08-12T15:22:44.640Z,40.14
2018-08-12T15:25:16.795Z,40.63
2018-08-12T15:27:45.786Z,40.09
2018-08-12T15:30:14.799Z,40.69
2018-08-12T15:32:43.833Z,40.38
2018-08-12T15:35:12.700Z,40.43
2018-08-12T15:37:41.530Z,42.25
2018-08-12T15:40:12.901Z,40.66
2018-08-12T15:42:42.327Z,40.84
2018-08-12T15:45:14.284Z,41.37
2018-08-12T15:47:43.800Z,40.13
2018-08-12T15:50:13.217Z,41.13
2018-08-12T15:52:44.121Z,42.44
2018-08-12T15:55:13.227Z,41.13
2018-08-12T15:57:42.090Z,40.94
2018-08-12T16:00:16.112Z,41.70
2018-08-12T16:02:45.237Z,40.82
2018-08-12T16:05:14.307Z,41.52
2018-08-12T16:07:44.714Z,41.65
2018-08-12T16:10:18.804Z,41.68
2018-08-12T16:12:49.143Z,41.49
2018-08-12T16:15:18.187Z,41.44
2018-08-12T16:17:47.187Z,41.78
2018-08-12T16:20:16.244Z,41.95
2018-08-12T16:22:45.162Z,42.53
2018-08-12T16:25:17.628Z,41.90
2018-08-12T16:27:46.647Z,43.31
2018-08-12T16:30:17.164Z,42.59
2018-08-12T16:32:46.316Z,43.22
2018-08-12T16:35:16.350Z,44.11
2018-08-12T16:37:45.952Z,44.22
2018-08-12T16:40:17.500Z,45.40
2018-08-12T16:42:48.258Z,44.23
2018-08-12T16:45:23.512Z,44.15
2018-08-12T16:47:52.667Z,44.04
2018-08-12T16:50:21.677Z,43.64
2018-08-12T16:52:50.561Z,43.54
2018-08-12T16:55:19.553Z,43.85
2018-08-12T16:57:48.465Z,43.69
2018-08-12T17:00:20.676Z,43.74
2018-08-12T17:02:50.245Z,43.72
2018-08-12T17:05:21.773Z,44.49
2018-08-12T17:07:50.921Z,43.92
2018-08-12T17:10:20.354Z,43.96
2018-08-12T17:12:49.435Z,44.74
2018-08-12T17:15:20.083Z,44.92
2018-08-12T17:17:49.465Z,45.53
2018-08-12T17:20:20.107Z,45.67
2018-08-12T17:22:49.153Z,46.01
2018-08-12T17:25:18.164Z,46.89
2018-08-12T17:27:47.044Z,46.91
2018-08-12T17:30:16.703Z,46.79
2018-08-12T17:32:45.613Z,47.32
2018-08-12T17:35:14.563Z,47.71
2018-08-12T17:37:44.404Z,48.19
2018-08-12T17:40:14.484Z,48.45
2018-08-12T17:42:43.380Z,48.61
2018-08-12T17:45:18.430Z,48.67
2018-08-12T17:47:47.306Z,49.18
2018-08-12T17:50:17.032Z,49.69
2018-08-12T17:52:45.852Z,50.54
2018-08-12T17:55:14.796Z,50.41
2018-08-12T17:57:43.731Z,50.01
2018-08-12T18:00:15.052Z,50.50
2018-08-12T18:02:43.994Z,51.19
2018-08-12T18:05:12.984Z,52.05
2018-08-12T18:07:41.958Z,52.40
2018-08-12T18:10:10.924Z,52.11
2018-08-12T18:12:39.744Z,52.59
2018-08-12T18:15:10.331Z,52.93
2018-08-12T18:17:42.793Z,52.88
2018-08-12T18:20:12.060Z,53.33
2018-08-12T18:22:41.739Z,53.25
2018-08-12T18:25:11.895Z,53.12
2018-08-12T18:27:41.081Z,53.97
2018-08-12T18:30:13.127Z,54.24
2018-08-12T18:32:42.507Z,54.41
2018-08-12T18:35:12.576Z,54.45
2018-08-12T18:37:41.800Z,54.67
2018-08-12T18:40:11.815Z,54.66
2018-08-12T18:42:40.760Z,55.24
2018-08-12T18:45:12.403Z,55.91
2018-08-12T18:47:41.345Z,56.05
2018-08-12T18:50:12.070Z,56.14
2018-08-12T18:52:41.534Z,56.35
2018-08-12T18:55:12.766Z,56.82
2018-08-12T18:57:42.342Z,56.79
2018-08-12T19:00:13.494Z,57.33
2018-08-12T19:02:42.865Z,57.65
2018-08-12T19:05:12.712Z,57.55
2018-08-12T19:07:43.126Z,57.78
2018-08-12T19:10:12.667Z,58.80
2018-08-12T19:12:42.798Z,58.09
2018-08-12T19:15:12.856Z,58.61
2018-08-12T19:17:41.758Z,58.86
2018-08-12T19:20:11.472Z,58.98
2018-08-12T19:22:40.346Z,58.55
2018-08-12T19:25:10.323Z,58.35
2018-08-12T19:27:39.227Z,59.34
2018-08-12T19:30:11.983Z,58.91
2018-08-12T19:32:41.419Z,59.32
2018-08-12T19:35:11.691Z,58.71
2018-08-12T19:37:41.497Z,58.12
2018-08-12T19:40:10.480Z,58.52
2018-08-12T19:42:39.407Z,58.14
2018-08-12T19:45:09.784Z,58.47
2018-08-12T19:47:38.724Z,58.66
2018-08-12T19:50:08.420Z,57.73
2018-08-12T19:52:37.339Z,58.52
2018-08-12T19:55:06.975Z,58.96
2018-08-12T19:57:35.789Z,58.56
2018-08-12T20:00:05.944Z,59.16
2018-08-12T20:02:34.853Z,59.30
2018-08-12T20:05:04.040Z,59.77
2018-08-12T20:07:33.170Z,58.97
2018-08-12T20:10:02.136Z,59.25
2018-08-12T20:12:30.960Z,59.86
2018-08-12T20:15:00.843Z,59.76
2018-08-12T20:17:29.712Z,59.67
2018-08-12T20:19:58.552Z,60.09
2018-08-12T20:22:27.412Z,59.97
2018-08-12T20:24:56.417Z,60.43
2018-08-12T20:27:25.272Z,60.19
2018-08-12T20:29:54.355Z,60.45
2018-08-12T20:32:23.252Z,60.21
2018-08-12T20:34:52.117Z,59.47
2018-08-12T20:37:20.952Z,60.37
2018-08-12T20:39:49.801Z,59.35
2018-08-12T20:42:18.743Z,59.21
2018-08-12T20:44:47.603Z,58.87
2018-08-12T20:47:16.464Z,59.92
2018-08-12T20:49:45.247Z,60.35
2018-08-12T20:52:14.084Z,59.09
2018-08-12T20:54:42.924Z,60.20
2018-08-12T20:57:11.736Z,60.63
2018-08-12T20:59:40.520Z,60.72
2018-08-12T21:02:09.592Z,61.60
2018-08-12T21:04:38.395Z,62.89
2018-08-12T21:07:07.832Z,62.41
2018-08-12T21:09:36.652Z,60.99
2018-08-12T21:12:05.766Z,61.29
2018-08-12T21:14:34.439Z,61.05
2018-08-12T21:17:03.532Z,61.71
2018-08-12T21:19:32.396Z,62.75
2018-08-12T21:22:01.482Z,62.93
2018-08-12T21:24:30.327Z,62.90
2018-08-12T21:26:59.147Z,61.72
2018-08-12T21:29:27.955Z,62.25
2018-08-12T21:31:57.043Z,62.04
2018-08-12T21:34:25.887Z,62.63
2018-08-12T21:36:54.736Z,63.18
2018-08-12T21:39:23.641Z,63.31
2018-08-12T21:41:52.452Z,62.21
2018-08-12T21:44:21.503Z,62.57
2018-08-12T21:46:50.382Z,61.35
2018-08-12T21:49:19.214Z,61.67
2018-08-12T21:51:48.018Z,60.68
2018-08-12T21:54:17.188Z,61.52
2018-08-12T21:56:46.074Z,61.33
2018-08-12T21:59:14.908Z,61.64
2018-08-12T22:01:44.487Z,61.85
2018-08-12T22:04:13.420Z,61.60
2018-08-12T22:06:42.298Z,61.69
2018-08-12T22:09:11.861Z,61.24
2018-08-12T22:11:41.015Z,61.61
2018-08-12T22:14:09.925Z,61.93
2018-08-12T22:16:38.705Z,62.07
2018-08-12T22:19:07.517Z,61.40
2018-08-12T22:21:36.542Z,62.19
2018-08-12T22:24:05.559Z,61.40
2018-08-12T22:26:34.611Z,61.18
2018-08-12T22:29:03.551Z,61.29
2018-08-12T22:31:32.447Z,61.95
2018-08-12T22:34:01.604Z,62.33
2018-08-12T22:36:35.099Z,61.65
2018-08-12T22:39:05.671Z,62.21
2018-08-12T22:41:34.544Z,63.13
2018-08-12T22:44:03.679Z,63.38
2018-08-12T22:46:32.544Z,62.47
2018-08-12T22:49:01.333Z,62.71
2018-08-12T22:51:30.608Z,63.27
2018-08-12T22:53:59.379Z,64.33
2018-08-12T22:56:28.356Z,64.15
2018-08-12T22:58:57.218Z,63.77
2018-08-12T23:01:26.264Z,63.00
2018-08-12T23:03:55.257Z,63.04
2018-08-12T23:06:25.727Z,62.34
2018-08-12T23:08:54.551Z,63.42
2018-08-12T23:11:23.375Z,64.79
2018-08-12T23:13:52.183Z,65.13
2018-08-12T23:16:37.711Z,64.67
2018-08-12T23:19:06.678Z,65.24
2018-08-12T23:21:35.511Z,65.56
2018-08-12T23:24:04.449Z,65.64
2018-08-12T23:26:33.252Z,64.35
2018-08-12T23:29:02.136Z,64.25
2018-08-12T23:31:31.021Z,65.25
2018-08-12T23:33:59.915Z,65.12
2018-08-12T23:36:28.713Z,64.10
2018-08-12T23:38:57.668Z,64.35
2018-08-12T23:41:26.486Z,63.79
2018-08-12T23:43:55.452Z,63.46
2018-08-12T23:46:24.304Z,63.65
2018-08-12T23:48:53.349Z,63.40
2018-08-12T23:51:22.208Z,64.30
2018-08-12T23:53:51.264Z,64.30
2018-08-12T23:56:20.221Z,64.66
2018-08-12T23:58:49.111Z,64.34
